Roslyn, South Dakota
Current Conditions -  °F | °C
As of 1:53 AM on Monday 24 Nov 2014 (Local Time) from KATY Reporting Station
Light Snow Light Snow  
Wind Chill:   Ceiling: 1600
Heat Index: 16°   Visibility: 9mi
Dew Point: 10°   Wind: 17mph
Humidity: 77%   Direction: 330°NNW
Pressure: 29.52"   Gusts: NA
Location:  45.5°N, 97.49°W
Report Text: KATY 240753Z AUTO 33015KT 9SM -SN OVC016 M09/M12 A2952 RMK AO2 PK WND 33027/0744 SNB16 SLP019 P0000 T10891122
Loading
Personal Weather Stations






























Interactive Weather Map New forecast layout! Learn more

10-Day Weather Forecast

Advertisements
Track Severe Weather on mobile